sensor_id;sensor_type;location;lat;lon;timestamp;pressure;altitude;pressure_sealevel;temperature;humidity
62592;BME280;48659;41.622;2.276;2023-04-03T00:00:51;100010.52;;;10.29;41.17
62592;BME280;48659;41.622;2.276;2023-04-03T00:03:19;100007.81;;;9.57;41.89
62592;BME280;48659;41.622;2.276;2023-04-03T00:06:02;99995.35;;;9.80;42.95
62592;BME280;48659;41.622;2.276;2023-04-03T00:08:30;99989.32;;;10.96;40.50
62592;BME280;48659;41.622;2.276;2023-04-03T00:10:58;99979.44;;;11.39;38.60
62592;BME280;48659;41.622;2.276;2023-04-03T00:13:25;99986.53;;;12.33;37.57
62592;BME280;48659;41.622;2.276;2023-04-03T00:15:53;99995.60;;;12.66;36.95
62592;BME280;48659;41.622;2.276;2023-04-03T00:18:21;100011.27;;;11.16;39.72
62592;BME280;48659;41.622;2.276;2023-04-03T00:20:48;100016.30;;;10.56;40.66
62592;BME280;48659;41.622;2.276;2023-04-03T00:23:16;100009.11;;;9.58;41.69
62592;BME280;48659;41.622;2.276;2023-04-03T00:25:44;100004.92;;;10.05;41.80
62592;BME280;48659;41.622;2.276;2023-04-03T00:28:11;99993.47;;;12.25;38.06
62592;BME280;48659;41.622;2.276;2023-04-03T00:30:39;99995.09;;;10.44;40.35
62592;BME280;48659;41.622;2.276;2023-04-03T00:33:06;99987.75;;;10.69;40.48
62592;BME280;48659;41.622;2.276;2023-04-03T00:35:34;99978.26;;;10.24;41.39
62592;BME280;48659;41.622;2.276;2023-04-03T00:38:02;99967.07;;;10.29;41.57
62592;BME280;48659;41.622;2.276;2023-04-03T00:40:39;99964.45;;;9.48;42.34
62592;BME280;48659;41.622;2.276;2023-04-03T00:43:11;99963.32;;;10.51;40.49
62592;BME280;48659;41.622;2.276;2023-04-03T00:45:41;99956.15;;;9.43;43.41
62592;BME280;48659;41.622;2.276;2023-04-03T00:48:13;99953.94;;;10.37;42.28
62592;BME280;48659;41.622;2.276;2023-04-03T00:50:43;99952.55;;;11.09;40.15
62592;BME280;48659;41.622;2.276;2023-04-03T00:53:14;99949.04;;;11.85;39.81
62592;BME280;48659;41.622;2.276;2023-04-03T00:55:43;99949.00;;;12.90;37.42
62592;BME280;48659;41.622;2.276;2023-04-03T00:58:12;99953.85;;;12.57;37.63
62592;BME280;48659;41.622;2.276;2023-04-03T01:00:42;99951.17;;;11.61;38.44
62592;BME280;48659;41.622;2.276;2023-04-03T01:03:13;99952.13;;;10.68;40.30
62592;BME280;48659;41.622;2.276;2023-04-03T01:05:40;99942.91;;;10.24;42.02
62592;BME280;48659;41.622;2.276;2023-04-03T01:08:08;99929.43;;;9.11;43.43
62592;BME280;48659;41.622;2.276;2023-04-03T01:10:36;99919.24;;;9.85;42.57
62592;BME280;48659;41.622;2.276;2023-04-03T01:15:38;99912.79;;;11.62;38.74
62592;BME280;48659;41.622;2.276;2023-04-03T01:18:09;99911.85;;;10.92;39.46
62592;BME280;48659;41.622;2.276;2023-04-03T01:20:50;99912.62;;;11.97;37.93
62592;BME280;48659;41.622;2.276;2023-04-03T01:23:33;99914.50;;;11.66;38.72
62592;BME280;48659;41.622;2.276;2023-04-03T01:26:04;99910.09;;;12.36;37.81
62592;BME280;48659;41.622;2.276;2023-04-03T01:28:33;99903.79;;;11.14;39.10
62592;BME280;48659;41.622;2.276;2023-04-03T01:31:08;99895.48;;;12.28;38.37
62592;BME280;48659;41.622;2.276;2023-04-03T01:33:38;99891.13;;;12.07;38.15
62592;BME280;48659;41.622;2.276;2023-04-03T01:36:07;99888.70;;;12.15;38.35
62592;BME280;48659;41.622;2.276;2023-04-03T01:38:35;99893.06;;;11.90;38.52
62592;BME280;48659;41.622;2.276;2023-04-03T01:41:02;99894.66;;;11.24;39.72
62592;BME280;48659;41.622;2.276;2023-04-03T01:43:30;99898.85;;;10.94;40.28
62592;BME280;48659;41.622;2.276;2023-04-03T01:45:57;99896.02;;;10.92;40.19
62592;BME280;48659;41.622;2.276;2023-04-03T01:48:24;99891.22;;;11.39;39.85
62592;BME280;48659;41.622;2.276;2023-04-03T01:50:51;99892.18;;;11.32;39.58
62592;BME280;48659;41.622;2.276;2023-04-03T01:53:18;99888.74;;;11.77;39.36
62592;BME280;48659;41.622;2.276;2023-04-03T01:55:45;99883.77;;;12.19;39.31
62592;BME280;48659;41.622;2.276;2023-04-03T01:58:12;99881.13;;;11.86;39.87
62592;BME280;48659;41.622;2.276;2023-04-03T02:00:39;99879.11;;;12.17;39.66
62592;BME280;48659;41.622;2.276;2023-04-03T02:03:06;99876.11;;;11.86;40.04
62592;BME280;48659;41.622;2.276;2023-04-03T02:05:34;99871.04;;;11.60;40.26
62592;BME280;48659;41.622;2.276;2023-04-03T02:08:01;99869.17;;;11.26;40.79
62592;BME280;48659;41.622;2.276;2023-04-03T02:10:29;99875.09;;;11.43;40.94
62592;BME280;48659;41.622;2.276;2023-04-03T02:12:56;99880.09;;;11.51;40.99
62592;BME280;48659;41.622;2.276;2023-04-03T02:15:23;99876.86;;;11.38;41.16
62592;BME280;48659;41.622;2.276;2023-04-03T02:17:50;99882.60;;;10.24;42.44
62592;BME280;48659;41.622;2.276;2023-04-03T02:20:17;99886.30;;;10.62;42.18
62592;BME280;48659;41.622;2.276;2023-04-03T02:22:46;99892.84;;;10.17;42.55
62592;BME280;48659;41.622;2.276;2023-04-03T02:25:13;99889.55;;;10.26;42.45
62592;BME280;48659;41.622;2.276;2023-04-03T02:27:40;99888.35;;;11.19;41.70
62592;BME280;48659;41.622;2.276;2023-04-03T02:30:08;99885.29;;;11.01;41.91
62592;BME280;48659;41.622;2.276;2023-04-03T02:32:35;99887.15;;;9.89;43.06
62592;BME280;48659;41.622;2.276;2023-04-03T02:35:02;99878.69;;;10.57;41.98
62592;BME280;48659;41.622;2.276;2023-04-03T02:37:30;99877.32;;;10.40;42.25
62592;BME280;48659;41.622;2.276;2023-04-03T02:39:57;99875.02;;;8.51;45.31
62592;BME280;48659;41.622;2.276;2023-04-03T02:42:25;99877.09;;;6.66;49.62
62592;BME280;48659;41.622;2.276;2023-04-03T02:44:58;99864.42;;;8.80;45.77
62592;BME280;48659;41.622;2.276;2023-04-03T02:47:25;99859.58;;;9.43;44.37
62592;BME280;48659;41.622;2.276;2023-04-03T02:49:53;99863.27;;;10.15;43.09
62592;BME280;48659;41.622;2.276;2023-04-03T02:52:20;99863.32;;;9.51;43.76
62592;BME280;48659;41.622;2.276;2023-04-03T02:54:49;99864.61;;;10.68;42.37
62592;BME280;48659;41.622;2.276;2023-04-03T02:57:16;99874.11;;;7.96;47.29
62592;BME280;48659;41.622;2.276;2023-04-03T02:59:43;99873.67;;;7.22;51.15
62592;BME280;48659;41.622;2.276;2023-04-03T03:02:10;99872.46;;;7.90;48.85
62592;BME280;48659;41.622;2.276;2023-04-03T03:04:38;99870.98;;;6.51;52.59
62592;BME280;48659;41.622;2.276;2023-04-03T03:07:05;99873.64;;;6.25;52.80
62592;BME280;48659;41.622;2.276;2023-04-03T03:09:32;99878.35;;;5.65;55.08
62592;BME280;48659;41.622;2.276;2023-04-03T03:11:59;99873.31;;;5.55;55.78
62592;BME280;48659;41.622;2.276;2023-04-03T03:14:26;99858.86;;;8.38;49.28
62592;BME280;48659;41.622;2.276;2023-04-03T03:16:54;99859.88;;;8.37;48.64
62592;BME280;48659;41.622;2.276;2023-04-03T03:19:21;99860.71;;;7.43;50.57
62592;BME280;48659;41.622;2.276;2023-04-03T03:21:48;99866.24;;;7.29;50.84
62592;BME280;48659;41.622;2.276;2023-04-03T03:24:16;99871.87;;;5.85;52.72
62592;BME280;48659;41.622;2.276;2023-04-03T03:26:43;99875.03;;;6.71;51.65
62592;BME280;48659;41.622;2.276;2023-04-03T03:29:11;99881.52;;;5.38;54.57
62592;BME280;48659;41.622;2.276;2023-04-03T03:31:38;99873.21;;;5.71;53.96
62592;BME280;48659;41.622;2.276;2023-04-03T03:34:05;99871.29;;;5.03;56.50
62592;BME280;48659;41.622;2.276;2023-04-03T03:36:32;99865.12;;;6.06;54.78
62592;BME280;48659;41.622;2.276;2023-04-03T03:38:59;99865.33;;;5.13;55.99
62592;BME280;48659;41.622;2.276;2023-04-03T03:41:27;99857.79;;;6.97;52.30
62592;BME280;48659;41.622;2.276;2023-04-03T03:43:54;99865.36;;;5.78;53.71
62592;BME280;48659;41.622;2.276;2023-04-03T03:46:21;99862.03;;;6.21;54.27
62592;BME280;48659;41.622;2.276;2023-04-03T03:48:49;99865.34;;;5.95;53.88
62592;BME280;48659;41.622;2.276;2023-04-03T03:51:16;99858.94;;;6.69;52.87
62592;BME280;48659;41.622;2.276;2023-04-03T03:53:43;99859.27;;;8.51;48.10
62592;BME280;48659;41.622;2.276;2023-04-03T03:56:11;99859.31;;;8.84;47.73
62592;BME280;48659;41.622;2.276;2023-04-03T03:58:38;99860.24;;;8.98;47.68
62592;BME280;48659;41.622;2.276;2023-04-03T04:01:06;99856.68;;;8.98;47.12
62592;BME280;48659;41.622;2.276;2023-04-03T04:03:34;99860.68;;;8.57;47.05
62592;BME280;48659;41.622;2.276;2023-04-03T04:06:02;99856.63;;;8.47;46.61
62592;BME280;48659;41.622;2.276;2023-04-03T04:08:29;99857.71;;;8.63;46.20
62592;BME280;48659;41.622;2.276;2023-04-03T04:10:56;99854.88;;;9.05;46.05
62592;BME280;48659;41.622;2.276;2023-04-03T04:13:24;99859.72;;;8.75;46.26
62592;BME280;48659;41.622;2.276;2023-04-03T04:15:52;99862.43;;;9.52;45.27
62592;BME280;48659;41.622;2.276;2023-04-03T04:18:18;99863.90;;;9.15;45.81
62592;BME280;48659;41.622;2.276;2023-04-03T04:20:46;99860.06;;;9.44;44.54
62592;BME280;48659;41.622;2.276;2023-04-03T04:23:13;99858.84;;;9.16;44.99
62592;BME280;48659;41.622;2.276;2023-04-03T04:25:43;99865.46;;;6.63;49.31
62592;BME280;48659;41.622;2.276;2023-04-03T04:28:11;99872.61;;;5.14;54.52
62592;BME280;48659;41.622;2.276;2023-04-03T04:30:38;99871.59;;;5.97;52.25
62592;BME280;48659;41.622;2.276;2023-04-03T04:33:05;99874.75;;;5.37;54.02
62592;BME280;48659;41.622;2.276;2023-04-03T04:35:32;99874.46;;;5.15;55.20
62592;BME280;48659;41.622;2.276;2023-04-03T04:37:59;99865.21;;;6.67;52.69
62592;BME280;48659;41.622;2.276;2023-04-03T04:40:27;99859.54;;;7.90;48.87
62592;BME280;48659;41.622;2.276;2023-04-03T04:42:57;99860.93;;;7.47;48.93
62592;BME280;48659;41.622;2.276;2023-04-03T04:45:25;99862.03;;;7.11;49.74
62592;BME280;48659;41.622;2.276;2023-04-03T04:47:53;99870.02;;;6.10;51.23
62592;BME280;48659;41.622;2.276;2023-04-03T04:50:21;99867.48;;;7.51;49.57
62592;BME280;48659;41.622;2.276;2023-04-03T04:52:49;99874.89;;;4.72;55.05
62592;BME280;48659;41.622;2.276;2023-04-03T04:55:16;99871.44;;;4.95;55.86
62592;BME280;48659;41.622;2.276;2023-04-03T04:57:44;99860.29;;;6.70;52.27
62592;BME280;48659;41.622;2.276;2023-04-03T05:00:12;99859.41;;;7.39;49.48
62592;BME280;48659;41.622;2.276;2023-04-03T05:02:40;99858.00;;;7.36;49.55
62592;BME280;48659;41.622;2.276;2023-04-03T05:05:08;99855.73;;;7.03;49.78
62592;BME280;48659;41.622;2.276;2023-04-03T05:07:35;99862.25;;;6.96;50.71
62592;BME280;48659;41.622;2.276;2023-04-03T05:10:04;99869.41;;;6.00;52.86
62592;BME280;48659;41.622;2.276;2023-04-03T05:12:32;99872.67;;;6.15;52.63
62592;BME280;48659;41.622;2.276;2023-04-03T05:15:00;99870.46;;;6.27;52.46
62592;BME280;48659;41.622;2.276;2023-04-03T05:17:27;99866.19;;;6.57;51.13
62592;BME280;48659;41.622;2.276;2023-04-03T05:19:55;99874.87;;;5.77;52.78
62592;BME280;48659;41.622;2.276;2023-04-03T05:22:22;99859.63;;;8.03;48.31
62592;BME280;48659;41.622;2.276;2023-04-03T05:24:49;99857.46;;;8.27;47.87
62592;BME280;48659;41.622;2.276;2023-04-03T05:27:17;99856.57;;;7.02;50.24
62592;BME280;48659;41.622;2.276;2023-04-03T05:29:44;99845.97;;;8.22;47.36
62592;BME280;48659;41.622;2.276;2023-04-03T05:32:12;99843.55;;;8.56;46.05
62592;BME280;48659;41.622;2.276;2023-04-03T05:34:39;99851.04;;;8.84;45.60
62592;BME280;48659;41.622;2.276;2023-04-03T05:37:06;99850.61;;;9.67;44.21
62592;BME280;48659;41.622;2.276;2023-04-03T05:39:34;99858.42;;;6.46;49.51
62592;BME280;48659;41.622;2.276;2023-04-03T05:42:02;99851.53;;;7.42;49.88
62592;BME280;48659;41.622;2.276;2023-04-03T05:44:30;99849.40;;;6.24;50.99
62592;BME280;48659;41.622;2.276;2023-04-03T05:46:57;99852.55;;;7.62;48.33
62592;BME280;48659;41.622;2.276;2023-04-03T05:49:24;99854.33;;;8.49;47.02
62592;BME280;48659;41.622;2.276;2023-04-03T05:51:52;99857.57;;;7.11;48.52
62592;BME280;48659;41.622;2.276;2023-04-03T05:54:22;99865.64;;;5.53;52.18
62592;BME280;48659;41.622;2.276;2023-04-03T05:56:51;99868.72;;;4.72;54.99
62592;BME280;48659;41.622;2.276;2023-04-03T05:59:19;99872.82;;;5.63;52.88
62592;BME280;48659;41.622;2.276;2023-04-03T06:01:46;99876.06;;;5.35;53.84
62592;BME280;48659;41.622;2.276;2023-04-03T06:04:14;99866.85;;;6.81;51.22
62592;BME280;48659;41.622;2.276;2023-04-03T06:06:45;99870.81;;;7.52;49.67
62592;BME280;48659;41.622;2.276;2023-04-03T06:09:13;99874.70;;;6.89;50.83
62592;BME280;48659;41.622;2.276;2023-04-03T06:11:41;99878.48;;;7.80;48.06
62592;BME280;48659;41.622;2.276;2023-04-03T06:14:09;99884.87;;;7.58;48.10
62592;BME280;48659;41.622;2.276;2023-04-03T06:16:36;99886.08;;;8.02;46.69
62592;BME280;48659;41.622;2.276;2023-04-03T06:19:04;99884.47;;;9.07;45.70
62592;BME280;48659;41.622;2.276;2023-04-03T06:21:31;99882.99;;;9.15;44.96
62592;BME280;48659;41.622;2.276;2023-04-03T06:23:58;99884.24;;;10.03;43.55
62592;BME280;48659;41.622;2.276;2023-04-03T06:26:25;99885.02;;;10.03;42.80
62592;BME280;48659;41.622;2.276;2023-04-03T06:28:52;99892.08;;;7.55;47.52
62592;BME280;48659;41.622;2.276;2023-04-03T06:31:20;99893.80;;;8.20;47.79
62592;BME280;48659;41.622;2.276;2023-04-03T06:33:47;99887.86;;;9.16;44.68
62592;BME280;48659;41.622;2.276;2023-04-03T06:36:17;99894.85;;;9.94;43.24
62592;BME280;48659;41.622;2.276;2023-04-03T06:38:45;99895.44;;;10.69;41.77
62592;BME280;48659;41.622;2.276;2023-04-03T06:41:13;99895.95;;;10.80;40.94
62592;BME280;48659;41.622;2.276;2023-04-03T06:43:40;99892.41;;;10.98;40.48
62592;BME280;48659;41.622;2.276;2023-04-03T06:46:13;99897.32;;;9.63;42.76
62592;BME280;48659;41.622;2.276;2023-04-03T06:48:41;99896.30;;;10.46;41.90
62592;BME280;48659;41.622;2.276;2023-04-03T06:51:15;99888.56;;;10.83;40.53
62592;BME280;48659;41.622;2.276;2023-04-03T06:53:45;99884.08;;;11.35;39.80
62592;BME280;48659;41.622;2.276;2023-04-03T06:56:12;99874.12;;;11.60;39.35
62592;BME280;48659;41.622;2.276;2023-04-03T06:58:40;99868.61;;;11.48;39.02
62592;BME280;48659;41.622;2.276;2023-04-03T07:01:08;99870.23;;;12.23;37.90
62592;BME280;48659;41.622;2.276;2023-04-03T07:03:35;99868.84;;;12.75;37.14
62592;BME280;48659;41.622;2.276;2023-04-03T07:06:03;99871.87;;;11.83;37.77
62592;BME280;48659;41.622;2.276;2023-04-03T07:08:31;99867.34;;;12.48;36.80
62592;BME280;48659;41.622;2.276;2023-04-03T07:10:59;99868.47;;;12.69;36.70
62592;BME280;48659;41.622;2.276;2023-04-03T07:13:27;99865.75;;;12.67;36.76
62592;BME280;48659;41.622;2.276;2023-04-03T07:15:55;99867.81;;;12.56;36.46
62592;BME280;48659;41.622;2.276;2023-04-03T07:18:22;99868.06;;;11.85;38.83
62592;BME280;48659;41.622;2.276;2023-04-03T07:20:50;99866.37;;;12.76;37.22
62592;BME280;48659;41.622;2.276;2023-04-03T07:23:18;99874.72;;;10.53;41.87
62592;BME280;48659;41.622;2.276;2023-04-03T07:25:47;99874.80;;;10.94;42.10
62592;BME280;48659;41.622;2.276;2023-04-03T07:28:16;99875.81;;;10.79;42.06
62592;BME280;48659;41.622;2.276;2023-04-03T07:30:44;99874.05;;;10.95;41.74
62592;BME280;48659;41.622;2.276;2023-04-03T07:33:12;99871.61;;;11.67;41.72
62592;BME280;48659;41.622;2.276;2023-04-03T07:35:40;99871.55;;;10.87;42.17
62592;BME280;48659;41.622;2.276;2023-04-03T07:38:07;99872.20;;;10.98;42.18
62592;BME280;48659;41.622;2.276;2023-04-03T07:40:35;99876.95;;;10.61;42.30
62592;BME280;48659;41.622;2.276;2023-04-03T07:43:03;99870.94;;;10.01;43.68
62592;BME280;48659;41.622;2.276;2023-04-03T07:45:31;99865.16;;;10.42;43.11
62592;BME280;48659;41.622;2.276;2023-04-03T07:47:58;99860.28;;;10.86;41.50
62592;BME280;48659;41.622;2.276;2023-04-03T07:50:26;99862.33;;;12.23;39.52
62592;BME280;48659;41.622;2.276;2023-04-03T07:52:53;99856.94;;;12.84;38.25
62592;BME280;48659;41.622;2.276;2023-04-03T07:55:20;99854.20;;;12.50;38.64
62592;BME280;48659;41.622;2.276;2023-04-03T07:57:48;99853.65;;;12.49;37.92
62592;BME280;48659;41.622;2.276;2023-04-03T08:00:17;99858.03;;;13.92;36.26
62592;BME280;48659;41.622;2.276;2023-04-03T08:02:45;99857.75;;;13.75;35.04
62592;BME280;48659;41.622;2.276;2023-04-03T08:05:12;99855.73;;;13.87;34.58
62592;BME280;48659;41.622;2.276;2023-04-03T08:07:38;99854.22;;;14.16;34.45
62592;BME280;48659;41.622;2.276;2023-04-03T08:10:07;99854.56;;;14.23;34.10
62592;BME280;48659;41.622;2.276;2023-04-03T08:12:35;99859.76;;;14.44;33.52
62592;BME280;48659;41.622;2.276;2023-04-03T08:15:03;99862.59;;;12.48;35.97
62592;BME280;48659;41.622;2.276;2023-04-03T08:17:31;99869.11;;;12.47;36.26
62592;BME280;48659;41.622;2.276;2023-04-03T08:19:58;99871.17;;;12.46;36.54
62592;BME280;48659;41.622;2.276;2023-04-03T08:22:25;99872.71;;;12.27;38.06
62592;BME280;48659;41.622;2.276;2023-04-03T08:24:52;99874.96;;;11.53;38.28
62592;BME280;48659;41.622;2.276;2023-04-03T08:27:19;99872.23;;;12.28;38.49
62592;BME280;48659;41.622;2.276;2023-04-03T08:29:46;99864.95;;;12.48;37.21
62592;BME280;48659;41.622;2.276;2023-04-03T08:32:13;99860.11;;;14.04;35.04
62592;BME280;48659;41.622;2.276;2023-04-03T08:34:41;99864.18;;;14.34;34.10
62592;BME280;48659;41.622;2.276;2023-04-03T08:37:08;99862.25;;;13.65;34.90
62592;BME280;48659;41.622;2.276;2023-04-03T08:39:35;99865.10;;;14.61;33.80
62592;BME280;48659;41.622;2.276;2023-04-03T08:42:11;99862.15;;;14.47;33.72
62592;BME280;48659;41.622;2.276;2023-04-03T08:44:47;99855.20;;;15.00;32.68
62592;BME280;48659;41.622;2.276;2023-04-03T08:47:23;99849.98;;;15.05;32.28
62592;BME280;48659;41.622;2.276;2023-04-03T08:50:00;99845.76;;;14.91;31.95
62592;BME280;48659;41.622;2.276;2023-04-03T08:52:35;99850.95;;;14.83;31.62
62592;BME280;48659;41.622;2.276;2023-04-03T08:55:06;99853.75;;;14.66;31.70
62592;BME280;48659;41.622;2.276;2023-04-03T08:57:38;99857.37;;;13.30;33.96
62592;BME280;48659;41.622;2.276;2023-04-03T09:00:17;99848.66;;;15.22;31.34
62592;BME280;48659;41.622;2.276;2023-04-03T09:02:47;99848.02;;;14.53;32.70
62592;BME280;48659;41.622;2.276;2023-04-03T09:05:17;99838.67;;;15.14;31.28
62592;BME280;48659;41.622;2.276;2023-04-03T09:07:49;99845.08;;;14.57;32.05
62592;BME280;48659;41.622;2.276;2023-04-03T09:10:26;99846.64;;;13.45;32.89
62592;BME280;48659;41.622;2.276;2023-04-03T09:12:59;99839.48;;;15.66;30.77
62592;BME280;48659;41.622;2.276;2023-04-03T09:15:30;99842.08;;;14.82;32.15
62592;BME280;48659;41.622;2.276;2023-04-03T09:18:02;99836.64;;;15.85;30.01
62592;BME280;48659;41.622;2.276;2023-04-03T09:20:39;99829.85;;;15.85;29.80
62592;BME280;48659;41.622;2.276;2023-04-03T09:23:18;99831.22;;;13.64;32.60
62592;BME280;48659;41.622;2.276;2023-04-03T09:25:48;99823.88;;;15.59;30.19
62592;BME280;48659;41.622;2.276;2023-04-03T09:28:16;99826.99;;;14.83;30.56
62592;BME280;48659;41.622;2.276;2023-04-03T09:30:44;99827.64;;;16.14;29.98
62592;BME280;48659;41.622;2.276;2023-04-03T09:33:11;99828.54;;;14.54;31.82
62592;BME280;48659;41.622;2.276;2023-04-03T09:35:41;99824.35;;;14.74;31.61
62592;BME280;48659;41.622;2.276;2023-04-03T09:38:20;99829.02;;;14.03;33.54
62592;BME280;48659;41.622;2.276;2023-04-03T09:41:04;99816.17;;;16.02;30.79
62592;BME280;48659;41.622;2.276;2023-04-03T09:43:33;99808.70;;;16.11;30.72
62592;BME280;48659;41.622;2.276;2023-04-03T09:46:25;99816.22;;;16.19;30.46
62592;BME280;48659;41.622;2.276;2023-04-03T09:49:03;99809.52;;;14.43;32.74
62592;BME280;48659;41.622;2.276;2023-04-03T09:51:31;99807.58;;;15.30;31.73
62592;BME280;48659;41.622;2.276;2023-04-03T09:53:59;99804.55;;;15.17;31.53
62592;BME280;48659;41.622;2.276;2023-04-03T09:56:28;99796.21;;;15.62;31.40
62592;BME280;48659;41.622;2.276;2023-04-03T09:59:12;99798.50;;;14.22;33.20
62592;BME280;48659;41.622;2.276;2023-04-03T10:01:57;99790.54;;;14.71;32.49
62592;BME280;48659;41.622;2.276;2023-04-03T10:04:25;99783.69;;;16.05;30.80
62592;BME280;48659;41.622;2.276;2023-04-03T10:06:54;99784.98;;;13.42;33.36
62592;BME280;48659;41.622;2.276;2023-04-03T10:09:23;99778.16;;;15.84;30.87
62592;BME280;48659;41.622;2.276;2023-04-03T10:12:01;99774.10;;;15.52;30.57
62592;BME280;48659;41.622;2.276;2023-04-03T10:14:29;99769.96;;;16.41;29.48
62592;BME280;48659;41.622;2.276;2023-04-03T10:17:03;99765.88;;;14.53;31.67
62592;BME280;48659;41.622;2.276;2023-04-03T10:19:40;99760.62;;;15.66;30.02
62592;BME280;48659;41.622;2.276;2023-04-03T10:22:16;99759.51;;;16.28;29.86
62592;BME280;48659;41.622;2.276;2023-04-03T10:24:52;99748.04;;;16.16;29.39
62592;BME280;48659;41.622;2.276;2023-04-03T10:27:30;99743.95;;;16.43;28.61
62592;BME280;48659;41.622;2.276;2023-04-03T10:30:04;99740.88;;;14.45;31.56
62592;BME280;48659;41.622;2.276;2023-04-03T10:32:47;99735.06;;;15.25;30.19
62592;BME280;48659;41.622;2.276;2023-04-03T10:35:27;99729.70;;;16.55;29.60
62592;BME280;48659;41.622;2.276;2023-04-03T10:38:04;99722.74;;;16.77;28.90
62592;BME280;48659;41.622;2.276;2023-04-03T10:40:41;99725.39;;;14.92;31.44
62592;BME280;48659;41.622;2.276;2023-04-03T10:43:17;99719.53;;;15.43;30.33
62592;BME280;48659;41.622;2.276;2023-04-03T10:45:56;99716.07;;;17.12;28.41
62592;BME280;48659;41.622;2.276;2023-04-03T10:48:35;99714.53;;;17.18;28.15
62592;BME280;48659;41.622;2.276;2023-04-03T10:51:14;99717.37;;;15.59;30.47
62592;BME280;48659;41.622;2.276;2023-04-03T10:53:47;99710.87;;;15.95;30.25
62592;BME280;48659;41.622;2.276;2023-04-03T10:56:21;99707.09;;;17.67;28.49
62592;BME280;48659;41.622;2.276;2023-04-03T10:59:00;99707.18;;;17.63;28.76
62592;BME280;48659;41.622;2.276;2023-04-03T11:01:33;99706.31;;;17.43;28.62
62592;BME280;48659;41.622;2.276;2023-04-03T11:04:06;99698.37;;;16.73;29.95
62592;BME280;48659;41.622;2.276;2023-04-03T11:06:39;99700.83;;;17.34;29.22
62592;BME280;48659;41.622;2.276;2023-04-03T11:09:18;99698.51;;;16.76;30.19
62592;BME280;48659;41.622;2.276;2023-04-03T11:11:47;99693.76;;;16.66;30.21
62592;BME280;48659;41.622;2.276;2023-04-03T11:14:21;99688.28;;;16.78;30.28
62592;BME280;48659;41.622;2.276;2023-04-03T11:16:59;99685.00;;;17.08;29.85
62592;BME280;48659;41.622;2.276;2023-04-03T11:19:34;99682.83;;;16.16;30.87
62592;BME280;48659;41.622;2.276;2023-04-03T11:22:04;99677.28;;;16.80;30.37
62592;BME280;48659;41.622;2.276;2023-04-03T11:24:39;99677.90;;;16.88;29.87
62592;BME280;48659;41.622;2.276;2023-04-03T11:27:15;99677.55;;;17.83;28.96
62592;BME280;48659;41.622;2.276;2023-04-03T11:29:45;99669.75;;;16.57;30.25
62592;BME280;48659;41.622;2.276;2023-04-03T11:32:31;99670.17;;;15.59;31.30
62592;BME280;48659;41.622;2.276;2023-04-03T11:35:05;99670.86;;;16.85;30.03
62592;BME280;48659;41.622;2.276;2023-04-03T11:37:35;99664.09;;;17.87;28.70
62592;BME280;48659;41.622;2.276;2023-04-03T11:40:13;99664.05;;;16.69;30.41
62592;BME280;48659;41.622;2.276;2023-04-03T11:42:48;99656.75;;;17.75;30.18
62592;BME280;48659;41.622;2.276;2023-04-03T11:45:29;99659.34;;;17.11;30.86
62592;BME280;48659;41.622;2.276;2023-04-03T11:47:59;99663.14;;;17.07;30.96
62592;BME280;48659;41.622;2.276;2023-04-03T11:50:44;99652.43;;;17.98;29.36
62592;BME280;48659;41.622;2.276;2023-04-03T11:53:44;99648.83;;;17.10;30.79
62592;BME280;48659;41.622;2.276;2023-04-03T11:56:30;99647.69;;;16.04;32.04
62592;BME280;48659;41.622;2.276;2023-04-03T11:59:21;99645.06;;;16.07;32.69
62592;BME280;48659;41.622;2.276;2023-04-03T12:01:50;99644.43;;;16.62;32.48
62592;BME280;48659;41.622;2.276;2023-04-03T12:04:19;99651.28;;;16.48;33.01
62592;BME280;48659;41.622;2.276;2023-04-03T12:07:12;99652.17;;;17.43;31.48
62592;BME280;48659;41.622;2.276;2023-04-03T12:09:58;99652.62;;;15.52;34.26
62592;BME280;48659;41.622;2.276;2023-04-03T12:12:36;99648.72;;;16.12;34.23
62592;BME280;48659;41.622;2.276;2023-04-03T12:15:46;99650.20;;;15.14;34.86
62592;BME280;48659;41.622;2.276;2023-04-03T12:21:01;99643.77;;;15.60;36.62
62592;BME280;48659;41.622;2.276;2023-04-03T12:23:31;99634.02;;;14.06;38.28
62592;BME280;48659;41.622;2.276;2023-04-03T12:26:05;99633.46;;;15.83;35.78
62592;BME280;48659;41.622;2.276;2023-04-03T12:28:38;99635.40;;;16.35;35.38
62592;BME280;48659;41.622;2.276;2023-04-03T12:31:10;99634.20;;;15.44;37.19
62592;BME280;48659;41.622;2.276;2023-04-03T12:33:47;99634.98;;;15.56;37.73
62592;BME280;48659;41.622;2.276;2023-04-03T12:36:25;99639.37;;;15.41;37.98
62592;BME280;48659;41.622;2.276;2023-04-03T12:39:04;99637.15;;;14.46;39.73
62592;BME280;48659;41.622;2.276;2023-04-03T12:41:38;99634.25;;;15.94;37.69
62592;BME280;48659;41.622;2.276;2023-04-03T12:44:23;99632.54;;;14.42;40.06
62592;BME280;48659;41.622;2.276;2023-04-03T12:46:53;99638.22;;;14.02;40.74
62592;BME280;48659;41.622;2.276;2023-04-03T12:49:33;99639.99;;;14.95;39.37
62592;BME280;48659;41.622;2.276;2023-04-03T12:52:05;99636.99;;;15.19;38.13
62592;BME280;48659;41.622;2.276;2023-04-03T12:54:40;99640.68;;;16.15;36.82
62592;BME280;48659;41.622;2.276;2023-04-03T12:57:10;99641.86;;;15.11;37.37
62592;BME280;48659;41.622;2.276;2023-04-03T12:59:38;99645.41;;;16.50;35.76
62592;BME280;48659;41.622;2.276;2023-04-03T13:02:21;99646.59;;;15.88;36.44
62592;BME280;48659;41.622;2.276;2023-04-03T13:04:50;99645.12;;;15.27;37.08
62592;BME280;48659;41.622;2.276;2023-04-03T13:07:28;99636.96;;;15.64;36.40
62592;BME280;48659;41.622;2.276;2023-04-03T13:09:58;99638.14;;;16.10;35.59
62592;BME280;48659;41.622;2.276;2023-04-03T13:12:26;99638.49;;;17.26;34.33
62592;BME280;48659;41.622;2.276;2023-04-03T13:14:57;99629.64;;;15.62;36.59
62592;BME280;48659;41.622;2.276;2023-04-03T13:17:26;99626.51;;;16.39;35.08
62592;BME280;48659;41.622;2.276;2023-04-03T13:19:53;99629.85;;;15.32;36.79
62592;BME280;48659;41.622;2.276;2023-04-03T13:22:28;99626.94;;;15.67;35.43
62592;BME280;48659;41.622;2.276;2023-04-03T13:24:59;99623.51;;;17.06;34.24